createdAt,value
2019-05-14T00:02:02.752Z,61.20
2019-05-14T00:04:31.681Z,61.10
2019-05-14T00:07:01.127Z,61.10
2019-05-14T00:09:32.166Z,60.80
2019-05-14T00:12:02.690Z,60.70
2019-05-14T00:14:39.864Z,61.10
2019-05-14T00:17:03.341Z,60.80
2019-05-14T00:19:32.894Z,61.10
2019-05-14T00:22:02.211Z,61.00
2019-05-14T00:24:32.335Z,60.80
2019-05-14T00:27:02.209Z,60.90
2019-05-14T00:29:32.083Z,60.40
2019-05-14T00:32:01.905Z,60.70
2019-05-14T00:34:31.645Z,60.90
2019-05-14T00:37:01.617Z,60.50
2019-05-14T00:39:32.115Z,60.90
2019-05-14T00:42:01.872Z,60.60
2019-05-14T00:44:32.420Z,60.60
2019-05-14T00:47:02.286Z,60.00
2019-05-14T00:49:31.848Z,60.50
2019-05-14T00:52:02.259Z,61.30
2019-05-14T00:54:32.209Z,60.70
2019-05-14T00:57:01.647Z,60.60
2019-05-14T00:59:32.182Z,60.60
2019-05-14T01:02:02.954Z,60.60
2019-05-14T01:04:32.513Z,60.60
2019-05-14T01:07:01.779Z,60.50
2019-05-14T01:09:31.560Z,60.40
2019-05-14T01:12:01.843Z,60.50
2019-05-14T01:14:31.829Z,60.30
2019-05-14T01:17:01.992Z,60.50
2019-05-14T01:19:31.683Z,60.40
2019-05-14T01:22:01.802Z,59.80
2019-05-14T01:24:32.240Z,60.50
2019-05-14T01:27:01.913Z,60.50
2019-05-14T01:29:31.778Z,60.40
2019-05-14T01:32:01.542Z,59.90
2019-05-14T01:34:32.400Z,60.30
2019-05-14T01:37:02.559Z,60.30
2019-05-14T01:39:32.228Z,60.20
2019-05-14T01:42:02.405Z,60.40
2019-05-14T01:44:32.077Z,60.30
2019-05-14T01:47:01.954Z,60.30
2019-05-14T01:49:31.876Z,60.10
2019-05-14T01:52:01.797Z,60.20
2019-05-14T01:54:31.791Z,60.20
2019-05-14T01:57:02.093Z,59.80
2019-05-14T01:59:32.328Z,60.10
2019-05-14T02:02:02.317Z,60.30
2019-05-14T02:04:32.207Z,60.00
2019-05-14T02:07:02.225Z,60.20
2019-05-14T02:09:32.228Z,60.10
2019-05-14T02:12:02.227Z,60.30
2019-05-14T02:14:31.697Z,60.20
2019-05-14T02:17:01.937Z,60.00
2019-05-14T02:19:31.801Z,60.40
2019-05-14T02:22:02.031Z,60.20
2019-05-14T02:24:32.190Z,60.20
2019-05-14T02:27:02.020Z,60.30
2019-05-14T02:29:32.052Z,59.80
2019-05-14T02:32:01.856Z,60.20
2019-05-14T02:34:31.091Z,60.30
2019-05-14T02:37:00.666Z,60.20
2019-05-14T02:39:30.168Z,60.00
2019-05-14T02:41:59.350Z,60.30
2019-05-14T02:44:29.793Z,60.20
2019-05-14T02:46:59.570Z,60.10
2019-05-14T02:49:29.923Z,60.20
2019-05-14T02:51:59.764Z,60.30
2019-05-14T02:54:29.711Z,60.40
2019-05-14T02:57:00.088Z,60.30
2019-05-14T02:59:30.728Z,60.20
2019-05-14T03:02:00.276Z,60.40
2019-05-14T03:04:30.203Z,60.20
2019-05-14T03:07:00.233Z,60.30
2019-05-14T03:09:29.664Z,60.30
2019-05-14T03:11:59.670Z,60.00
2019-05-14T03:14:30.269Z,60.20
2019-05-14T03:16:59.856Z,60.10
2019-05-14T03:19:29.753Z,60.30
2019-05-14T03:22:00.193Z,60.20
2019-05-14T03:24:29.918Z,60.10
2019-05-14T03:26:59.105Z,60.20
2019-05-14T03:29:30.814Z,60.10
2019-05-14T03:32:03.132Z,60.20
2019-05-14T03:34:33.199Z,60.20
2019-05-14T03:37:03.232Z,60.30
2019-05-14T03:39:31.815Z,60.00
2019-05-14T03:42:00.957Z,60.00
2019-05-14T03:44:30.178Z,60.10
2019-05-14T03:47:04.654Z,60.00
2019-05-14T03:49:30.281Z,59.90
2019-05-14T03:52:00.387Z,60.20
2019-05-14T03:54:30.441Z,60.00
2019-05-14T03:57:00.288Z,59.70
2019-05-14T03:59:29.892Z,60.10
2019-05-14T04:02:00.028Z,60.20
2019-05-14T04:04:30.126Z,60.00
2019-05-14T04:07:00.636Z,60.00
2019-05-14T04:09:30.170Z,60.00
2019-05-14T04:11:59.633Z,60.00
2019-05-14T04:14:30.012Z,60.00
2019-05-14T04:17:08.389Z,59.70
2019-05-14T04:19:30.167Z,60.00
2019-05-14T04:22:00.052Z,60.00
2019-05-14T04:24:31.491Z,60.00
2019-05-14T04:27:07.747Z,59.50
2019-05-14T04:29:33.204Z,60.00
2019-05-14T04:32:02.404Z,59.60
2019-05-14T04:34:31.616Z,60.00
2019-05-14T04:37:00.757Z,59.80
2019-05-14T04:39:30.883Z,59.80
2019-05-14T04:42:00.390Z,60.00
2019-05-14T04:44:29.972Z,59.80
2019-05-14T04:47:00.097Z,59.80
2019-05-14T04:49:30.852Z,59.80
2019-05-14T04:52:00.004Z,60.00
2019-05-14T04:54:30.311Z,60.40
2019-05-14T04:57:00.243Z,60.00
2019-05-14T04:59:30.161Z,60.10
2019-05-14T05:02:00.258Z,60.10
2019-05-14T05:04:30.282Z,60.30
2019-05-14T05:06:59.744Z,60.40
2019-05-14T05:09:30.866Z,61.00
2019-05-14T05:12:00.792Z,60.90
2019-05-14T05:14:30.005Z,61.90
2019-05-14T05:16:59.723Z,62.30
2019-05-14T05:19:29.366Z,62.50
2019-05-14T05:21:59.354Z,62.40
2019-05-14T05:24:28.888Z,62.20
2019-05-14T05:26:58.804Z,62.30
2019-05-14T05:29:28.733Z,63.20
2019-05-14T05:31:59.348Z,63.00
2019-05-14T05:34:28.738Z,63.20
2019-05-14T05:36:59.284Z,63.10
2019-05-14T05:39:28.830Z,63.90
2019-05-14T05:41:58.634Z,64.00
2019-05-14T05:44:28.830Z,64.40
2019-05-14T05:46:59.627Z,64.80
2019-05-14T05:49:29.334Z,64.90
2019-05-14T05:51:59.281Z,65.10
2019-05-14T05:54:29.356Z,65.20
2019-05-14T05:56:58.861Z,64.70
2019-05-14T05:59:29.361Z,63.80
2019-05-14T06:01:58.906Z,63.90
2019-05-14T06:04:29.041Z,63.60
2019-05-14T06:06:59.757Z,63.40
2019-05-14T06:09:29.385Z,63.40
2019-05-14T06:11:59.183Z,63.00
2019-05-14T06:14:29.137Z,63.00
2019-05-14T06:16:59.225Z,62.80
2019-05-14T06:19:29.129Z,62.80
2019-05-14T06:21:59.770Z,62.70
2019-05-14T06:24:29.215Z,62.50
2019-05-14T06:26:58.783Z,62.20
2019-05-14T06:29:29.007Z,63.50
2019-05-14T06:31:59.071Z,63.10
2019-05-14T06:34:29.102Z,63.60
2019-05-14T06:36:59.271Z,63.90
2019-05-14T06:39:29.031Z,63.60
2019-05-14T06:41:58.686Z,63.40
2019-05-14T06:44:29.413Z,63.00
2019-05-14T06:46:59.233Z,63.00
2019-05-14T06:49:29.135Z,63.00
2019-05-14T06:51:59.258Z,62.80
2019-05-14T06:54:29.530Z,62.50
2019-05-14T06:56:58.709Z,61.90
2019-05-14T06:59:28.777Z,61.40
2019-05-14T07:01:58.308Z,61.30
2019-05-14T07:04:28.853Z,60.70
2019-05-14T07:06:59.139Z,60.90
2019-05-14T07:09:29.088Z,60.90
2019-05-14T07:11:58.984Z,61.00
2019-05-14T07:14:28.427Z,60.70
2019-05-14T07:16:58.916Z,60.90
2019-05-14T07:19:29.388Z,60.90
2019-05-14T07:21:59.172Z,61.20
2019-05-14T07:24:28.506Z,61.40
2019-05-14T07:26:58.605Z,61.20
2019-05-14T07:29:29.255Z,61.10
2019-05-14T07:31:58.654Z,61.10
2019-05-14T07:34:28.477Z,61.20
2019-05-14T07:36:58.713Z,61.10
2019-05-14T07:39:29.088Z,61.10
2019-05-14T07:41:59.239Z,61.20
2019-05-14T07:44:29.672Z,61.10
2019-05-14T07:46:59.145Z,61.00
2019-05-14T07:49:29.194Z,61.10
2019-05-14T07:51:58.883Z,61.10
2019-05-14T07:54:28.468Z,61.10
2019-05-14T07:56:59.091Z,61.20
2019-05-14T07:59:28.814Z,62.00
2019-05-14T08:01:58.658Z,60.80
2019-05-14T08:04:28.929Z,61.20
2019-05-14T08:06:58.888Z,61.20
2019-05-14T08:09:28.445Z,61.00
2019-05-14T08:11:58.731Z,60.60
2019-05-14T08:14:29.374Z,60.80
2019-05-14T08:16:59.630Z,61.00
2019-05-14T08:19:31.525Z,61.00
2019-05-14T08:21:59.778Z,61.10
2019-05-14T08:24:30.047Z,60.60
2019-05-14T08:26:59.542Z,60.70
2019-05-14T08:29:28.794Z,60.90
2019-05-14T08:31:58.328Z,61.10
2019-05-14T08:34:29.436Z,60.80
2019-05-14T08:36:58.931Z,60.90
2019-05-14T08:39:28.681Z,61.00
2019-05-14T08:42:03.539Z,60.90
2019-05-14T08:44:29.557Z,62.00
2019-05-14T08:46:59.154Z,60.90
2019-05-14T08:49:38.900Z,60.90
2019-05-14T08:51:59.675Z,60.90
2019-05-14T08:54:28.863Z,60.80
2019-05-14T08:56:58.496Z,60.70
2019-05-14T08:59:28.676Z,60.70
2019-05-14T09:02:05.863Z,60.70
2019-05-14T09:04:30.641Z,60.70
2019-05-14T09:06:59.832Z,60.70
2019-05-14T09:09:29.325Z,60.90
2019-05-14T09:11:59.878Z,60.70
2019-05-14T09:14:29.267Z,60.90
2019-05-14T09:16:59.937Z,60.90
2019-05-14T09:19:29.290Z,60.80
2019-05-14T09:21:59.020Z,60.70
2019-05-14T09:24:29.343Z,60.60
2019-05-14T09:26:59.362Z,60.50
2019-05-14T09:29:29.846Z,60.60
2019-05-14T09:31:59.541Z,60.60
2019-05-14T09:34:29.166Z,60.80
2019-05-14T09:36:59.485Z,60.50
2019-05-14T09:39:29.193Z,60.30
2019-05-14T09:41:58.494Z,60.40
2019-05-14T09:44:29.303Z,60.60
2019-05-14T09:46:59.337Z,60.60
2019-05-14T09:49:28.923Z,60.50
2019-05-14T09:51:58.385Z,60.60
2019-05-14T09:54:28.683Z,60.80
2019-05-14T09:56:59.182Z,60.80
2019-05-14T09:59:28.805Z,60.70
2019-05-14T10:01:58.634Z,60.80
2019-05-14T10:04:29.181Z,60.80
2019-05-14T10:06:59.263Z,60.80
2019-05-14T10:09:29.110Z,60.70
2019-05-14T10:11:59.295Z,60.60
2019-05-14T10:14:29.803Z,60.50
2019-05-14T10:16:59.141Z,60.50
2019-05-14T10:19:29.668Z,60.40
2019-05-14T10:21:59.325Z,60.40
2019-05-14T10:24:29.164Z,60.60
2019-05-14T10:26:58.712Z,60.50
2019-05-14T10:29:28.677Z,60.50
2019-05-14T10:31:59.254Z,60.50
2019-05-14T10:34:28.792Z,60.70
2019-05-14T10:36:59.045Z,60.40
2019-05-14T10:39:29.890Z,60.10
2019-05-14T10:41:59.427Z,60.10
2019-05-14T10:44:29.273Z,60.20
2019-05-14T10:46:59.111Z,60.10
2019-05-14T10:49:29.973Z,60.50
2019-05-14T10:51:59.116Z,60.30
2019-05-14T10:54:29.250Z,60.20
2019-05-14T10:56:59.356Z,60.20
2019-05-14T10:59:29.561Z,60.40
2019-05-14T11:01:58.767Z,60.40
2019-05-14T11:04:28.637Z,60.30
2019-05-14T11:06:57.982Z,60.20
2019-05-14T11:09:28.575Z,60.20
2019-05-14T11:11:58.429Z,60.10
2019-05-14T11:14:31.776Z,60.20
2019-05-14T11:16:59.406Z,60.30
2019-05-14T11:19:28.601Z,60.30
2019-05-14T11:21:58.028Z,60.30
2019-05-14T11:24:29.519Z,60.10
2019-05-14T11:26:59.244Z,60.30
2019-05-14T11:29:29.732Z,60.10
2019-05-14T11:31:59.052Z,60.20
2019-05-14T11:34:28.871Z,60.20
2019-05-14T11:36:59.032Z,60.20
2019-05-14T11:39:28.898Z,60.20
2019-05-14T11:41:59.172Z,60.20
2019-05-14T11:44:28.776Z,60.40
2019-05-14T11:47:02.439Z,60.40
2019-05-14T11:49:29.331Z,60.60
2019-05-14T11:52:06.488Z,60.50
2019-05-14T11:54:29.368Z,60.40
2019-05-14T11:56:58.994Z,60.40
2019-05-14T11:59:28.572Z,60.20
2019-05-14T12:01:59.336Z,60.30
2019-05-14T12:04:28.929Z,60.40
2019-05-14T12:06:59.197Z,60.50
2019-05-14T12:09:28.646Z,60.40
2019-05-14T12:11:58.728Z,60.40
2019-05-14T12:14:28.574Z,60.50
2019-05-14T12:17:00.090Z,60.30
2019-05-14T12:19:28.621Z,60.40
2019-05-14T12:22:06.709Z,60.40
2019-05-14T12:24:29.303Z,60.40
2019-05-14T12:26:58.783Z,60.40
2019-05-14T12:29:29.199Z,60.60
2019-05-14T12:31:58.772Z,60.50
2019-05-14T12:34:29.581Z,60.60
2019-05-14T12:36:58.831Z,60.40
2019-05-14T12:39:29.375Z,60.30
2019-05-14T12:41:58.655Z,60.30
2019-05-14T12:44:29.190Z,60.10
2019-05-14T12:46:58.856Z,59.90
2019-05-14T12:49:28.176Z,60.00
2019-05-14T12:51:59.197Z,60.40
2019-05-14T12:54:29.689Z,60.30
2019-05-14T12:56:59.204Z,60.20
2019-05-14T12:59:28.637Z,60.30
2019-05-14T13:01:58.682Z,60.00
2019-05-14T13:04:28.594Z,60.30
2019-05-14T13:06:59.810Z,60.40
2019-05-14T13:09:28.830Z,60.30
2019-05-14T13:11:58.690Z,60.60
2019-05-14T13:14:28.382Z,60.60
2019-05-14T13:16:59.849Z,60.60
2019-05-14T13:19:29.153Z,60.70
2019-05-14T13:22:12.081Z,60.70
2019-05-14T13:24:29.189Z,60.70
2019-05-14T13:26:58.934Z,60.70
2019-05-14T13:29:28.954Z,60.90
2019-05-14T13:31:59.228Z,61.10
2019-05-14T13:34:29.172Z,60.80
2019-05-14T13:36:59.708Z,60.60
2019-05-14T13:39:29.253Z,60.80
2019-05-14T13:41:58.944Z,61.20
2019-05-14T13:44:29.292Z,61.40
2019-05-14T13:46:59.657Z,61.50
2019-05-14T13:49:30.445Z,61.20
2019-05-14T13:51:59.577Z,61.30
2019-05-14T13:54:31.714Z,61.40
2019-05-14T13:56:59.579Z,61.30
2019-05-14T13:59:28.771Z,61.30
2019-05-14T14:01:59.203Z,61.40
2019-05-14T14:04:28.698Z,61.50
2019-05-14T14:06:59.041Z,61.50
2019-05-14T14:09:31.438Z,61.60
2019-05-14T14:11:59.475Z,61.60
2019-05-14T14:14:29.219Z,61.60
2019-05-14T14:16:58.544Z,61.60
2019-05-14T14:19:28.313Z,61.60
2019-05-14T14:21:59.019Z,61.70
2019-05-14T14:24:29.163Z,61.50
2019-05-14T14:26:58.561Z,61.70
2019-05-14T14:29:27.697Z,61.60
2019-05-14T14:31:58.829Z,61.60
2019-05-14T14:34:29.044Z,61.40
2019-05-14T14:36:59.302Z,61.60
2019-05-14T14:39:28.753Z,61.50
2019-05-14T14:41:58.594Z,61.40
2019-05-14T14:44:29.179Z,61.20
2019-05-14T14:46:58.458Z,61.30
2019-05-14T14:49:28.141Z,61.30
2019-05-14T14:51:58.896Z,61.40
2019-05-14T14:54:28.877Z,61.00
2019-05-14T14:56:59.234Z,61.40
2019-05-14T14:59:30.345Z,61.30
2019-05-14T15:01:59.983Z,61.30
2019-05-14T15:04:29.148Z,61.30
2019-05-14T15:06:59.767Z,61.20
2019-05-14T15:09:29.197Z,61.20
2019-05-14T15:11:59.823Z,61.30
2019-05-14T15:14:29.838Z,61.30
2019-05-14T15:16:59.242Z,61.00
2019-05-14T15:19:29.835Z,61.30
2019-05-14T15:21:59.661Z,61.40
2019-05-14T15:24:28.795Z,61.30
2019-05-14T15:27:06.891Z,61.20
2019-05-14T15:29:28.891Z,61.30
2019-05-14T15:31:59.268Z,61.20
2019-05-14T15:34:29.749Z,61.20
2019-05-14T15:36:59.818Z,60.90
2019-05-14T15:39:30.168Z,60.90
2019-05-14T15:42:05.461Z,61.00
2019-05-14T15:44:47.639Z,60.80
2019-05-14T15:47:01.772Z,61.00
2019-05-14T15:49:30.951Z,60.80
2019-05-14T15:52:00.125Z,61.30
2019-05-14T15:54:42.891Z,61.80
2019-05-14T15:57:00.184Z,64.20
2019-05-14T15:59:29.364Z,62.60
2019-05-14T16:01:58.579Z,63.10
2019-05-14T16:04:28.632Z,62.90
2019-05-14T16:06:58.699Z,62.50
2019-05-14T16:09:28.902Z,62.00
2019-05-14T16:11:58.992Z,61.90
2019-05-14T16:14:30.062Z,61.80
2019-05-14T16:16:59.085Z,61.80
2019-05-14T16:19:28.540Z,61.70
2019-05-14T16:21:58.640Z,61.40
2019-05-14T16:24:28.654Z,61.30
2019-05-14T16:27:00.151Z,61.10
2019-05-14T16:29:40.327Z,61.40
2019-05-14T16:31:59.999Z,62.20
2019-05-14T16:34:29.123Z,61.30
2019-05-14T16:36:58.511Z,61.10
2019-05-14T16:39:28.488Z,60.40
2019-05-14T16:41:58.316Z,61.00
2019-05-14T16:44:28.359Z,60.90
2019-05-14T16:46:58.743Z,56.80
2019-05-14T16:49:29.913Z,58.60
2019-05-14T16:51:59.665Z,60.20
2019-05-14T16:54:29.549Z,61.20
2019-05-14T16:56:59.243Z,62.60
2019-05-14T16:59:29.597Z,62.50
2019-05-14T17:01:59.015Z,62.70
2019-05-14T17:04:29.330Z,62.30
2019-05-14T17:06:59.099Z,63.60
2019-05-14T17:09:30.124Z,63.00
2019-05-14T17:11:59.270Z,63.10
2019-05-14T17:14:29.150Z,62.70
2019-05-14T17:16:59.528Z,61.80
2019-05-14T17:19:29.819Z,62.80
2019-05-14T17:21:59.766Z,63.40
2019-05-14T17:24:29.406Z,64.50
2019-05-14T17:26:58.759Z,66.40
2019-05-14T17:29:28.608Z,64.90
2019-05-14T17:31:58.259Z,64.60
2019-05-14T17:34:29.283Z,65.40
2019-05-14T17:36:59.428Z,66.60
2019-05-14T17:39:28.922Z,66.30
2019-05-14T17:41:58.882Z,64.30
2019-05-14T17:44:28.387Z,64.10
2019-05-14T17:46:58.719Z,63.80
2019-05-14T17:49:28.419Z,64.00
2019-05-14T17:51:58.191Z,63.60
2019-05-14T17:54:28.410Z,63.50
2019-05-14T17:56:59.191Z,63.50
2019-05-14T17:59:29.855Z,64.00
2019-05-14T18:01:59.421Z,64.00
2019-05-14T18:04:28.813Z,64.00
2019-05-14T18:06:59.239Z,64.30
2019-05-14T18:09:29.276Z,64.10
2019-05-14T18:11:58.773Z,64.00
2019-05-14T18:14:28.531Z,64.10
2019-05-14T18:16:58.595Z,64.50
2019-05-14T18:19:28.932Z,64.90
2019-05-14T18:21:59.335Z,64.60
2019-05-14T18:24:28.936Z,64.80
2019-05-14T18:26:58.093Z,64.70
2019-05-14T18:29:29.539Z,64.70
2019-05-14T18:32:01.041Z,64.70
2019-05-14T18:34:29.094Z,64.70
2019-05-14T18:37:00.806Z,64.80
2019-05-14T18:39:29.271Z,64.80
2019-05-14T18:42:00.599Z,64.60
2019-05-14T18:44:29.340Z,64.40
2019-05-14T18:46:59.388Z,64.10
2019-05-14T18:49:28.876Z,64.10
2019-05-14T18:51:59.277Z,63.90
2019-05-14T18:54:29.336Z,63.90
2019-05-14T18:56:59.736Z,63.70
2019-05-14T18:59:30.822Z,63.60
2019-05-14T19:02:00.214Z,64.30
2019-05-14T19:04:29.385Z,64.10
2019-05-14T19:06:59.118Z,63.80
2019-05-14T19:09:29.341Z,64.00
2019-05-14T19:11:58.878Z,64.10
2019-05-14T19:14:29.248Z,64.20
2019-05-14T19:16:59.185Z,64.50
2019-05-14T19:19:29.379Z,64.40
2019-05-14T19:21:58.734Z,64.60
2019-05-14T19:24:28.676Z,64.80
2019-05-14T19:26:59.514Z,65.00
2019-05-14T19:29:28.864Z,64.80
2019-05-14T19:31:58.025Z,65.00
2019-05-14T19:34:28.756Z,65.00
2019-05-14T19:36:58.383Z,64.70
2019-05-14T19:39:28.304Z,64.90
2019-05-14T19:41:57.821Z,64.80
2019-05-14T19:44:27.062Z,64.80
2019-05-14T19:46:56.382Z,64.80
2019-05-14T19:49:25.544Z,64.80
2019-05-14T19:51:54.669Z,64.80
2019-05-14T19:54:24.015Z,65.10
2019-05-14T19:56:57.346Z,66.10
2019-05-14T19:59:25.887Z,67.10
2019-05-14T20:01:55.008Z,59.30
2019-05-14T20:04:24.202Z,64.80
2019-05-14T20:06:53.332Z,66.50
2019-05-14T20:09:22.550Z,68.30
2019-05-14T20:11:51.699Z,68.40
2019-05-14T20:14:20.847Z,68.40
2019-05-14T20:16:50.461Z,68.10
2019-05-14T20:19:19.620Z,75.50
2019-05-14T20:21:48.765Z,68.30
2019-05-14T20:24:18.908Z,69.50
2019-05-14T20:26:48.951Z,66.50
2019-05-14T20:29:19.401Z,67.60
2019-05-14T20:31:49.065Z,69.00
2019-05-14T20:34:19.140Z,67.10
2019-05-14T20:36:48.726Z,66.60
2019-05-14T20:39:18.354Z,65.10
2019-05-14T20:41:49.098Z,65.90
2019-05-14T20:44:19.189Z,65.90
2019-05-14T20:46:48.965Z,66.70
2019-05-14T20:49:19.045Z,67.00
2019-05-14T20:51:49.485Z,66.30
2019-05-14T20:54:18.861Z,70.20
2019-05-14T20:56:49.248Z,69.70
2019-05-14T20:59:19.147Z,67.20
2019-05-14T21:01:48.565Z,62.30
2019-05-14T21:04:18.868Z,68.60
2019-05-14T21:06:48.758Z,62.70
2019-05-14T21:09:19.116Z,64.40
2019-05-14T21:11:49.228Z,66.30
2019-05-14T21:14:18.754Z,65.20
2019-05-14T21:16:48.851Z,65.60
2019-05-14T21:19:18.238Z,64.90
2019-05-14T21:21:49.209Z,66.60
2019-05-14T21:24:21.904Z,65.00
2019-05-14T21:26:49.155Z,65.30
2019-05-14T21:29:18.374Z,66.90
2019-05-14T21:31:47.530Z,66.60
2019-05-14T21:34:16.673Z,67.40
2019-05-14T21:36:48.773Z,70.00
2019-05-14T21:39:18.896Z,66.90
2019-05-14T21:41:48.952Z,65.80
2019-05-14T21:44:18.815Z,65.50
2019-05-14T21:46:48.362Z,66.90
2019-05-14T21:49:19.042Z,67.20
2019-05-14T21:51:51.323Z,68.20
2019-05-14T21:54:19.259Z,68.30
2019-05-14T21:56:49.594Z,68.40
2019-05-14T21:59:19.015Z,68.40
2019-05-14T22:01:48.603Z,68.50
2019-05-14T22:04:18.686Z,69.50
2019-05-14T22:06:49.083Z,69.30
2019-05-14T22:09:18.393Z,69.60
2019-05-14T22:11:48.541Z,69.90
2019-05-14T22:14:18.740Z,70.50
2019-05-14T22:16:48.749Z,70.80
2019-05-14T22:19:19.072Z,71.10
2019-05-14T22:21:49.099Z,71.40
2019-05-14T22:24:18.817Z,72.00
2019-05-14T22:26:49.380Z,72.00
2019-05-14T22:29:18.533Z,72.50
2019-05-14T22:31:47.868Z,72.50
2019-05-14T22:34:18.422Z,72.50
2019-05-14T22:36:48.505Z,72.90
2019-05-14T22:39:19.976Z,73.10
2019-05-14T22:41:48.796Z,72.90
2019-05-14T22:44:18.703Z,73.30
2019-05-14T22:46:49.027Z,73.60
2019-05-14T22:49:19.084Z,73.50
2019-05-14T22:51:49.243Z,73.80
2019-05-14T22:54:20.995Z,73.90
2019-05-14T22:56:49.493Z,74.00
2019-05-14T22:59:20.631Z,73.30
2019-05-14T23:01:49.496Z,74.10
2019-05-14T23:04:18.651Z,74.30
2019-05-14T23:06:48.893Z,74.30
2019-05-14T23:09:19.041Z,74.40
2019-05-14T23:11:48.336Z,74.50
2019-05-14T23:14:18.574Z,74.50
2019-05-14T23:16:49.163Z,75.00
2019-05-14T23:19:18.802Z,74.80
2019-05-14T23:21:48.444Z,74.80
2019-05-14T23:24:18.936Z,74.90
2019-05-14T23:26:49.278Z,75.10
2019-05-14T23:29:18.681Z,75.10
2019-05-14T23:31:48.847Z,75.00
2019-05-14T23:34:18.992Z,75.20
2019-05-14T23:36:48.436Z,75.10
2019-05-14T23:39:17.634Z,75.20
2019-05-14T23:41:48.782Z,75.20
2019-05-14T23:44:19.148Z,75.40
2019-05-14T23:46:48.373Z,75.20
2019-05-14T23:49:18.461Z,75.20
2019-05-14T23:51:48.006Z,75.60
2019-05-14T23:54:18.229Z,75.40
2019-05-14T23:56:48.851Z,75.40
2019-05-14T23:59:18.488Z,75.40
